PWSweather.com
Personal Weather Stations
Station Observations
BSWETTER1
Bswetter.de, BraunschweigDE 38106

Bswetter.deBraunschweigDE 38106

Lat: 52.2751483, Lon: 10.5434341

Elevation: 295

Station Type: Davis Vantage II Pro Plus Aktiv

http://bswetter.de/

Latest ConditionsUpdated 3:00:10 PM GMT+01:01 Thursday, Sep 21, 2017
Currently Today's Max Today's Min Today's Average
Temperature 63.4°F17.4°C 66.1°F18.9°C 48.8°F9.3°C 55.6°F13.1°C
Dew Point 50.6°F10.3°C 51.9°F11.1°C 46.9°F8.3°C 49.3°F9.6°C
Winds Calm Calm 5.8 mph W9.3 kmh W - 0.9 mph 1.4 kmh
Wind Gusts -- 8.1 mph13.0 kmh - -
Humidity 63% 94% 56% 81%
Pressure 30.13 in1020.3 mb 30.16 in1021.3 mb 30.13 in1020.3 mb -
Precipitation - 0.01 in0.3 mm - -
Hour Temp Dew Point Humidity Winds Wind Gusts Pressure Precip Precip Rate Daily Precip Total
03:00 PM 63.4°F17.4°C 50.6°F10.3°C 63% Calm Calm -- 30.13 in1020.3 mb - 0.00 in0.0 mm 0.01 in0.3 mm
02:55 PM 63.4°F17.4°C 50.5°F10.3°C 63% Calm Calm 1.2 mph1.9 kmh 30.13 in1020.3 mb - 0.00 in0.0 mm 0.01 in0.3 mm
02:50 PM 63.3°F17.4°C 50.5°F10.3°C 63% Calm Calm 1.2 mph1.9 kmh 30.13 in1020.3 mb - 0.00 in0.0 mm 0.01 in0.3 mm
02:45 PM 63.3°F17.4°C 50.5°F10.3°C 63% 2.3 mph N3.7 kmh N 3.5 mph5.6 kmh 30.13 in1020.3 mb - 0.00 in0.0 mm 0.01 in0.3 mm
02:40 PM 63.3°F17.4°C 50.9°F10.5°C 64% 1.2 mph N1.9 kmh N 1.2 mph1.9 kmh 30.13 in1020.3 mb - 0.00 in0.0 mm 0.01 in0.3 mm
02:35 PM 63.2°F17.3°C 50.0°F10.0°C 62% 1.2 mph N1.9 kmh N 2.3 mph3.7 kmh 30.13 in1020.3 mb - 0.00 in0.0 mm 0.01 in0.3 mm
02:30 PM 63.3°F17.4°C 49.6°F9.8°C 61% 1.2 mph N1.9 kmh N 3.5 mph5.6 kmh 30.13 in1020.3 mb - 0.00 in0.0 mm 0.01 in0.3 mm
02:25 PM 63.4°F17.4°C 49.7°F9.8°C 61% 1.2 mph N1.9 kmh N 2.3 mph3.7 kmh 30.13 in1020.3 mb - 0.00 in0.0 mm 0.01 in0.3 mm
02:20 PM 63.5°F17.5°C 49.8°F9.9°C 61% 1.2 mph N1.9 kmh N 2.3 mph3.7 kmh 30.13 in1020.3 mb - 0.00 in0.0 mm 0.01 in0.3 mm
02:15 PM 63.6°F17.6°C 49.9°F9.9°C 61% 1.2 mph N1.9 kmh N 3.5 mph5.6 kmh 30.13 in1020.3 mb - 0.00 in0.0 mm 0.01 in0.3 mm
02:10 PM 63.6°F17.6°C 50.4°F10.2°C 62% 1.2 mph N1.9 kmh N 2.3 mph3.7 kmh 30.13 in1020.3 mb - 0.00 in0.0 mm 0.01 in0.3 mm
02:00 PM 63.7°F17.6°C 50.0°F10.0°C 61% 1.2 mph N1.9 kmh N 3.5 mph5.6 kmh 30.13 in1020.3 mb - 0.00 in0.0 mm 0.01 in0.3 mm
01:55 PM 63.8°F17.7°C 49.2°F9.6°C 59% 1.2 mph N1.9 kmh N 3.5 mph5.6 kmh 30.13 in1020.3 mb - 0.00 in0.0 mm 0.01 in0.3 mm
01:50 PM 63.8°F17.7°C 49.6°F9.8°C 60% Calm Calm -- 30.13 in1020.3 mb - 0.00 in0.0 mm 0.01 in0.3 mm
01:45 PM 63.8°F17.7°C 48.7°F9.3°C 58% 1.2 mph N1.9 kmh N 3.5 mph5.6 kmh 30.13 in1020.3 mb - 0.00 in0.0 mm 0.01 in0.3 mm
01:40 PM 63.7°F17.6°C 48.2°F9.0°C 57% Calm Calm 2.3 mph3.7 kmh 30.13 in1020.3 mb - 0.00 in0.0 mm 0.01 in0.3 mm
01:35 PM 63.7°F17.6°C 47.7°F8.7°C 56% 1.2 mph NNW1.9 kmh NNW 3.5 mph5.6 kmh 30.13 in1020.3 mb - 0.00 in0.0 mm 0.01 in0.3 mm
01:30 PM 63.7°F17.6°C 47.7°F8.7°C 56% 2.3 mph NW3.7 kmh NW 3.5 mph5.6 kmh 30.13 in1020.3 mb - 0.00 in0.0 mm 0.01 in0.3 mm
01:25 PM 63.9°F17.7°C 47.9°F8.8°C 56% 3.5 mph W5.6 kmh W 6.9 mph11.1 kmh 30.13 in1020.3 mb - 0.00 in0.0 mm 0.01 in0.3 mm
01:20 PM 64.0°F17.8°C 48.5°F9.2°C 57% 3.5 mph NW5.6 kmh NW 3.5 mph5.6 kmh 30.13 in1020.3 mb - 0.00 in0.0 mm 0.01 in0.3 mm
01:15 PM 64.1°F17.8°C 48.5°F9.2°C 57% 4.6 mph WSW7.4 kmh WSW 6.9 mph11.1 kmh 30.13 in1020.3 mb - 0.00 in0.0 mm 0.01 in0.3 mm
01:10 PM 64.0°F17.8°C 49.4°F9.7°C 59% Calm Calm -- 30.13 in1020.3 mb - 0.00 in0.0 mm 0.01 in0.3 mm
01:00 PM 64.0°F17.8°C 49.4°F9.7°C 59% 2.3 mph NW3.7 kmh NW 3.5 mph5.6 kmh 30.14 in1020.7 mb - 0.00 in0.0 mm 0.01 in0.3 mm
12:55 PM 64.2°F17.9°C 50.0°F10.0°C 60% 2.3 mph NNW3.7 kmh NNW 3.5 mph5.6 kmh 30.14 in1020.7 mb - 0.00 in0.0 mm 0.01 in0.3 mm
12:50 PM 64.4°F18.0°C 49.3°F9.6°C 58% 1.2 mph W1.9 kmh W 2.3 mph3.7 kmh 30.14 in1020.7 mb - 0.00 in0.0 mm 0.01 in0.3 mm
12:45 PM 64.7°F18.2°C 49.1°F9.5°C 57% 4.6 mph WSW7.4 kmh WSW 5.8 mph9.3 kmh 30.14 in1020.7 mb - 0.00 in0.0 mm 0.01 in0.3 mm
12:40 PM 65.1°F18.4°C 50.0°F10.0°C 58% 1.2 mph NNW1.9 kmh NNW 2.3 mph3.7 kmh 30.14 in1020.7 mb - 0.00 in0.0 mm 0.01 in0.3 mm
12:35 PM 65.4°F18.6°C 50.7°F10.4°C 59% 1.2 mph ENE1.9 kmh ENE 2.3 mph3.7 kmh 30.14 in1020.7 mb - 0.00 in0.0 mm 0.01 in0.3 mm
12:30 PM 65.7°F18.7°C 50.0°F10.0°C 57% 3.5 mph ESE5.6 kmh ESE 5.8 mph9.3 kmh 30.14 in1020.7 mb - 0.00 in0.0 mm 0.01 in0.3 mm
12:25 PM 65.5°F18.6°C 49.9°F9.9°C 57% 2.3 mph SW3.7 kmh SW 3.5 mph5.6 kmh 30.14 in1020.7 mb - 0.00 in0.0 mm 0.01 in0.3 mm
12:20 PM 66.1°F18.9°C 50.9°F10.5°C 58% 5.8 mph WSW9.3 kmh WSW 8.1 mph13.0 kmh 30.14 in1020.7 mb - 0.00 in0.0 mm 0.01 in0.3 mm
12:15 PM 65.7°F18.7°C 51.4°F10.8°C 60% 3.5 mph S5.6 kmh S 3.5 mph5.6 kmh 30.14 in1020.7 mb - 0.00 in0.0 mm 0.01 in0.3 mm
12:10 PM 65.1°F18.4°C 51.3°F10.7°C 61% 1.2 mph S1.9 kmh S 3.5 mph5.6 kmh 30.14 in1020.7 mb - 0.00 in0.0 mm 0.01 in0.3 mm
12:00 PM 64.7°F18.2°C 51.8°F11.0°C 63% 1.2 mph SW1.9 kmh SW 4.6 mph7.4 kmh 30.14 in1020.7 mb - 0.00 in0.0 mm 0.01 in0.3 mm
11:55 AM 63.8°F17.7°C 51.3°F10.7°C 64% Calm Calm 1.2 mph1.9 kmh 30.14 in1020.7 mb - 0.00 in0.0 mm 0.01 in0.3 mm
11:50 AM 63.0°F17.2°C 51.1°F10.6°C 65% Calm Calm 3.5 mph5.6 kmh 30.15 in1021.0 mb - 0.00 in0.0 mm 0.01 in0.3 mm
11:45 AM 62.6°F17.0°C 51.1°F10.6°C 66% 2.3 mph WSW3.7 kmh WSW 3.5 mph5.6 kmh 30.15 in1021.0 mb - 0.00 in0.0 mm 0.01 in0.3 mm
11:40 AM 62.6°F17.0°C 51.1°F10.6°C 66% 5.8 mph W9.3 kmh W 8.1 mph13.0 kmh 30.15 in1021.0 mb - 0.00 in0.0 mm 0.01 in0.3 mm
11:35 AM 62.8°F17.1°C 50.9°F10.5°C 65% 2.3 mph WSW3.7 kmh WSW 8.1 mph13.0 kmh 30.15 in1021.0 mb - 0.00 in0.0 mm 0.01 in0.3 mm
11:30 AM 62.4°F16.9°C 50.9°F10.5°C 66% Calm Calm 2.3 mph3.7 kmh 30.15 in1021.0 mb - 0.00 in0.0 mm 0.01 in0.3 mm
11:25 AM 62.3°F16.8°C 50.8°F10.4°C 66% Calm Calm 3.5 mph5.6 kmh 30.15 in1021.0 mb - 0.00 in0.0 mm 0.01 in0.3 mm
11:20 AM 62.2°F16.8°C 51.5°F10.8°C 68% 2.3 mph WSW3.7 kmh WSW 6.9 mph11.1 kmh 30.15 in1021.0 mb - 0.00 in0.0 mm 0.01 in0.3 mm
11:15 AM 61.8°F16.6°C 50.7°F10.4°C 67% 3.5 mph WSW5.6 kmh WSW 4.6 mph7.4 kmh 30.15 in1021.0 mb - 0.00 in0.0 mm 0.01 in0.3 mm
11:10 AM 61.9°F16.6°C 50.4°F10.2°C 66% 4.6 mph W7.4 kmh W 6.9 mph11.1 kmh 30.15 in1021.0 mb - 0.00 in0.0 mm 0.01 in0.3 mm
11:00 AM 61.8°F16.6°C 50.3°F10.2°C 66% 2.3 mph WSW3.7 kmh WSW 3.5 mph5.6 kmh 30.15 in1021.0 mb - 0.00 in0.0 mm 0.01 in0.3 mm
10:55 AM 61.5°F16.4°C 50.0°F10.0°C 66% 1.2 mph WNW1.9 kmh WNW 2.3 mph3.7 kmh 30.15 in1021.0 mb - 0.00 in0.0 mm 0.01 in0.3 mm
10:50 AM 61.3°F16.3°C 50.2°F10.1°C 67% 2.3 mph NNW3.7 kmh NNW 3.5 mph5.6 kmh 30.15 in1021.0 mb - 0.00 in0.0 mm 0.01 in0.3 mm
10:45 AM 61.0°F16.1°C 51.5°F10.8°C 71% Calm Calm 3.5 mph5.6 kmh 30.15 in1021.0 mb - 0.00 in0.0 mm 0.01 in0.3 mm
10:40 AM 60.9°F16.1°C 51.0°F10.6°C 70% 2.3 mph WSW3.7 kmh WSW 5.8 mph9.3 kmh 30.15 in1021.0 mb - 0.00 in0.0 mm 0.01 in0.3 mm
10:35 AM 61.0°F16.1°C 50.8°F10.4°C 69% 2.3 mph WSW3.7 kmh WSW 3.5 mph5.6 kmh 30.15 in1021.0 mb - 0.00 in0.0 mm 0.01 in0.3 mm
10:30 AM 61.1°F16.2°C 50.8°F10.4°C 69% Calm Calm 2.3 mph3.7 kmh 30.15 in1021.0 mb - 0.00 in0.0 mm 0.01 in0.3 mm
10:25 AM 61.2°F16.2°C 50.9°F10.5°C 69% 1.2 mph WSW1.9 kmh WSW 3.5 mph5.6 kmh 30.15 in1021.0 mb - 0.00 in0.0 mm 0.01 in0.3 mm
10:20 AM 61.3°F16.3°C 51.0°F10.6°C 69% 3.5 mph WSW5.6 kmh WSW 3.5 mph5.6 kmh 30.15 in1021.0 mb - 0.00 in0.0 mm 0.01 in0.3 mm
10:15 AM 61.1°F16.2°C 50.8°F10.4°C 69% Calm Calm 2.3 mph3.7 kmh 30.15 in1021.0 mb - 0.00 in0.0 mm 0.01 in0.3 mm
10:10 AM 61.2°F16.2°C 51.7°F10.9°C 71% 2.3 mph WSW3.7 kmh WSW 5.8 mph9.3 kmh 30.15 in1021.0 mb - 0.00 in0.0 mm 0.01 in0.3 mm
10:00 AM 60.7°F15.9°C 51.6°F10.9°C 72% Calm Calm -- 30.16 in1021.3 mb - 0.00 in0.0 mm 0.01 in0.3 mm
09:55 AM 60.6°F15.9°C 51.9°F11.1°C 73% 1.2 mph SSW1.9 kmh SSW 3.5 mph5.6 kmh 30.16 in1021.3 mb - 0.00 in0.0 mm 0.01 in0.3 mm
09:50 AM 60.2°F15.7°C 51.1°F10.6°C 72% Calm Calm -- 30.16 in1021.3 mb - 0.00 in0.0 mm 0.01 in0.3 mm
09:45 AM 60.2°F15.7°C 51.8°F11.0°C 74% Calm Calm 2.3 mph3.7 kmh 30.16 in1021.3 mb - 0.00 in0.0 mm 0.01 in0.3 mm
09:40 AM 59.6°F15.3°C 51.3°F10.7°C 74% 1.2 mph S1.9 kmh S 3.5 mph5.6 kmh 30.16 in1021.3 mb - 0.00 in0.0 mm 0.01 in0.3 mm
09:35 AM 59.4°F15.2°C 51.5°F10.8°C 75% 1.2 mph SSW1.9 kmh SSW 2.3 mph3.7 kmh 30.16 in1021.3 mb - 0.00 in0.0 mm 0.01 in0.3 mm
09:30 AM 59.2°F15.1°C 51.6°F10.9°C 76% 1.2 mph S1.9 kmh S 2.3 mph3.7 kmh 30.16 in1021.3 mb - 0.00 in0.0 mm 0.01 in0.3 mm
09:25 AM 58.7°F14.8°C 51.5°F10.8°C 77% Calm Calm 1.2 mph1.9 kmh 30.16 in1021.3 mb - 0.00 in0.0 mm 0.01 in0.3 mm
09:20 AM 58.1°F14.5°C 51.9°F11.1°C 80% 1.2 mph SSW1.9 kmh SSW 3.5 mph5.6 kmh 30.16 in1021.3 mb - 0.00 in0.0 mm 0.01 in0.3 mm
09:15 AM 57.5°F14.2°C 51.3°F10.7°C 80% Calm Calm 2.3 mph3.7 kmh 30.16 in1021.3 mb - 0.00 in0.0 mm 0.01 in0.3 mm
09:10 AM 57.1°F13.9°C 51.3°F10.7°C 81% Calm Calm 3.5 mph5.6 kmh 30.16 in1021.3 mb - 0.00 in0.0 mm 0.01 in0.3 mm
09:00 AM 56.5°F13.6°C 51.1°F10.6°C 82% Calm Calm 2.3 mph3.7 kmh 30.16 in1021.3 mb - 0.00 in0.0 mm 0.01 in0.3 mm
08:55 AM 56.3°F13.5°C 50.9°F10.5°C 82% 1.2 mph SW1.9 kmh SW 2.3 mph3.7 kmh 30.16 in1021.3 mb - 0.00 in0.0 mm 0.01 in0.3 mm
08:50 AM 56.3°F13.5°C 51.2°F10.7°C 83% 2.3 mph SW3.7 kmh SW 4.6 mph7.4 kmh 30.16 in1021.3 mb - 0.00 in0.0 mm 0.01 in0.3 mm
08:45 AM 56.1°F13.4°C 51.3°F10.7°C 84% Calm Calm 2.3 mph3.7 kmh 30.16 in1021.3 mb - 0.00 in0.0 mm 0.01 in0.3 mm
08:40 AM 55.8°F13.2°C 51.3°F10.7°C 85% Calm Calm 1.2 mph1.9 kmh 30.16 in1021.3 mb - 0.00 in0.0 mm 0.01 in0.3 mm
08:35 AM 55.2°F12.9°C 51.1°F10.6°C 86% 1.2 mph SSW1.9 kmh SSW 2.3 mph3.7 kmh 30.16 in1021.3 mb - 0.00 in0.0 mm 0.01 in0.3 mm
08:30 AM 55.0°F12.8°C 51.2°F10.7°C 87% 1.2 mph SSW1.9 kmh SSW 2.3 mph3.7 kmh 30.16 in1021.3 mb - 0.00 in0.0 mm 0.01 in0.3 mm
08:25 AM 54.7°F12.6°C 51.5°F10.8°C 89% 1.2 mph SSW1.9 kmh SSW 3.5 mph5.6 kmh 30.16 in1021.3 mb - 0.00 in0.0 mm 0.01 in0.3 mm
08:20 AM 54.4°F12.4°C 51.5°F10.8°C 90% Calm Calm 1.2 mph1.9 kmh 30.16 in1021.3 mb - 0.00 in0.0 mm 0.01 in0.3 mm
08:15 AM 54.0°F12.2°C 51.4°F10.8°C 91% 1.2 mph SSW1.9 kmh SSW 2.3 mph3.7 kmh 30.16 in1021.3 mb - 0.00 in0.0 mm 0.01 in0.3 mm
08:10 AM 53.6°F12.0°C 51.3°F10.7°C 92% Calm Calm 1.2 mph1.9 kmh 30.16 in1021.3 mb - 0.00 in0.0 mm 0.01 in0.3 mm
08:00 AM 52.8°F11.6°C 50.9°F10.5°C 93% Calm Calm 3.5 mph5.6 kmh 30.16 in1021.3 mb - 0.00 in0.0 mm 0.01 in0.3 mm
07:55 AM 52.6°F11.4°C 50.7°F10.4°C 93% 1.2 mph SSW1.9 kmh SSW 2.3 mph3.7 kmh 30.16 in1021.3 mb - 0.00 in0.0 mm 0.01 in0.3 mm
07:50 AM 52.4°F11.3°C 50.4°F10.2°C 93% Calm Calm 2.3 mph3.7 kmh 30.16 in1021.3 mb - 0.00 in0.0 mm 0.01 in0.3 mm
07:45 AM 52.1°F11.2°C 50.5°F10.3°C 94% Calm Calm -- 30.15 in1021.0 mb - 0.00 in0.0 mm 0.01 in0.3 mm
07:40 AM 51.9°F11.1°C 50.2°F10.1°C 94% Calm Calm 1.2 mph1.9 kmh 30.15 in1021.0 mb - 0.00 in0.0 mm 0.01 in0.3 mm
07:35 AM 51.7°F10.9°C 50.0°F10.0°C 94% Calm Calm 1.2 mph1.9 kmh 30.15 in1021.0 mb - 0.00 in0.0 mm 0.01 in0.3 mm
07:30 AM 51.4°F10.8°C 49.7°F9.8°C 94% 2.3 mph SSW3.7 kmh SSW 3.5 mph5.6 kmh 30.15 in1021.0 mb - 0.00 in0.0 mm 0.01 in0.3 mm
07:25 AM 51.1°F10.6°C 49.4°F9.7°C 94% Calm Calm 2.3 mph3.7 kmh 30.15 in1021.0 mb - 0.00 in0.0 mm 0.01 in0.3 mm
07:20 AM 50.8°F10.4°C 49.1°F9.5°C 94% 1.2 mph SSW1.9 kmh SSW 4.6 mph7.4 kmh 30.15 in1021.0 mb - 0.00 in0.0 mm 0.01 in0.3 mm
07:15 AM 50.6°F10.3°C 48.9°F9.4°C 94% 1.2 mph SSW1.9 kmh SSW 3.5 mph5.6 kmh 30.15 in1021.0 mb - 0.00 in0.0 mm 0.01 in0.3 mm
07:10 AM 50.5°F10.3°C 48.8°F9.3°C 94% Calm Calm -- 30.15 in1021.0 mb - 0.00 in0.0 mm 0.01 in0.3 mm
07:00 AM 50.1°F10.1°C 48.4°F9.1°C 94% Calm Calm 3.5 mph5.6 kmh 30.15 in1021.0 mb - 0.00 in0.0 mm 0.01 in0.3 mm
06:55 AM 49.9°F9.9°C 48.2°F9.0°C 94% Calm Calm -- 30.15 in1021.0 mb - 0.00 in0.0 mm 0.01 in0.3 mm
06:50 AM 49.8°F9.9°C 48.1°F8.9°C 94% Calm Calm -- 30.15 in1021.0 mb - 0.00 in0.0 mm 0.01 in0.3 mm
06:45 AM 49.6°F9.8°C 47.9°F8.8°C 94% Calm Calm 1.2 mph1.9 kmh 30.15 in1021.0 mb - 0.00 in0.0 mm 0.01 in0.3 mm
06:40 AM 49.5°F9.7°C 47.8°F8.8°C 94% 1.2 mph SSW1.9 kmh SSW 2.3 mph3.7 kmh 30.15 in1021.0 mb - 0.00 in0.0 mm 0.01 in0.3 mm
06:35 AM 49.4°F9.7°C 47.7°F8.7°C 94% Calm Calm 1.2 mph1.9 kmh 30.15 in1021.0 mb - 0.00 in0.0 mm 0.01 in0.3 mm
06:30 AM 49.4°F9.7°C 47.7°F8.7°C 94% Calm Calm -- 30.15 in1021.0 mb - 0.00 in0.0 mm 0.01 in0.3 mm
06:25 AM 49.3°F9.6°C 47.6°F8.7°C 94% 1.2 mph SSW1.9 kmh SSW 2.3 mph3.7 kmh 30.15 in1021.0 mb - 0.00 in0.0 mm 0.01 in0.3 mm
06:20 AM 49.2°F9.6°C 47.5°F8.6°C 94% Calm Calm 2.3 mph3.7 kmh 30.15 in1021.0 mb - 0.00 in0.0 mm 0.01 in0.3 mm
06:15 AM 49.1°F9.5°C 47.4°F8.6°C 94% Calm Calm 2.3 mph3.7 kmh 30.15 in1021.0 mb - 0.00 in0.0 mm 0.01 in0.3 mm
06:10 AM 49.0°F9.4°C 47.3°F8.5°C 94% Calm Calm 3.5 mph5.6 kmh 30.15 in1021.0 mb - 0.00 in0.0 mm 0.01 in0.3 mm
06:00 AM 48.9°F9.4°C 47.2°F8.4°C 94% Calm Calm -- 30.15 in1021.0 mb - 0.01 in0.3 mm 0.01 in0.3 mm
05:55 AM 48.9°F9.4°C 47.2°F8.4°C 94% Calm Calm -- 30.15 in1021.0 mb - 0.01 in0.3 mm 0.01 in0.3 mm
05:50 AM 48.9°F9.4°C 47.2°F8.4°C 94% Calm Calm 1.2 mph1.9 kmh 30.15 in1021.0 mb - 0.00 in0.0 mm 0.00 in0.0 mm
05:45 AM 48.9°F9.4°C 47.3°F8.5°C 94% 1.2 mph SSW1.9 kmh SSW 2.3 mph3.7 kmh 30.14 in1020.7 mb - 0.00 in0.0 mm 0.00 in0.0 mm
05:40 AM 48.9°F9.4°C 47.3°F8.5°C 94% Calm Calm 1.2 mph1.9 kmh 30.15 in1021.0 mb - 0.00 in0.0 mm 0.00 in0.0 mm
05:35 AM 48.9°F9.4°C 47.2°F8.4°C 94% Calm Calm 1.2 mph1.9 kmh 30.15 in1021.0 mb - 0.00 in0.0 mm 0.00 in0.0 mm
05:30 AM 48.9°F9.4°C 47.2°F8.4°C 94% 1.2 mph SSW1.9 kmh SSW 2.3 mph3.7 kmh 30.15 in1021.0 mb - 0.00 in0.0 mm 0.00 in0.0 mm
05:25 AM 48.9°F9.4°C 47.2°F8.4°C 94% Calm Calm 1.2 mph1.9 kmh 30.14 in1020.7 mb - 0.00 in0.0 mm 0.00 in0.0 mm
05:20 AM 48.8°F9.3°C 46.9°F8.3°C 93% 1.2 mph SSW1.9 kmh SSW 2.3 mph3.7 kmh 30.14 in1020.7 mb - 0.00 in0.0 mm 0.00 in0.0 mm
05:15 AM 48.8°F9.3°C 46.9°F8.3°C 93% Calm Calm 1.2 mph1.9 kmh 30.14 in1020.7 mb - 0.00 in0.0 mm 0.00 in0.0 mm
05:10 AM 48.8°F9.3°C 46.9°F8.3°C 93% Calm Calm 1.2 mph1.9 kmh 30.14 in1020.7 mb - 0.00 in0.0 mm 0.00 in0.0 mm
05:00 AM 49.0°F9.4°C 47.1°F8.4°C 93% 1.2 mph SSW1.9 kmh SSW 2.3 mph3.7 kmh 30.14 in1020.7 mb - 0.00 in0.0 mm 0.00 in0.0 mm
04:55 AM 49.1°F9.5°C 47.2°F8.4°C 93% Calm Calm 2.3 mph3.7 kmh 30.14 in1020.7 mb - 0.00 in0.0 mm 0.00 in0.0 mm
04:50 AM 49.1°F9.5°C 47.2°F8.4°C 93% Calm Calm -- 30.14 in1020.7 mb - 0.00 in0.0 mm 0.00 in0.0 mm
04:45 AM 49.1°F9.5°C 47.2°F8.4°C 93% Calm Calm 1.2 mph1.9 kmh 30.14 in1020.7 mb - 0.00 in0.0 mm 0.00 in0.0 mm
04:40 AM 49.0°F9.4°C 47.1°F8.4°C 93% 1.2 mph SSW1.9 kmh SSW 2.3 mph3.7 kmh 30.14 in1020.7 mb - 0.00 in0.0 mm 0.00 in0.0 mm
04:35 AM 49.0°F9.4°C 47.1°F8.4°C 93% Calm Calm 1.2 mph1.9 kmh 30.14 in1020.7 mb - 0.00 in0.0 mm 0.00 in0.0 mm
04:30 AM 49.0°F9.4°C 47.1°F8.4°C 93% Calm Calm 1.2 mph1.9 kmh 30.14 in1020.7 mb - 0.00 in0.0 mm 0.00 in0.0 mm
04:25 AM 49.0°F9.4°C 47.1°F8.4°C 93% 1.2 mph SSW1.9 kmh SSW 3.5 mph5.6 kmh 30.14 in1020.7 mb - 0.00 in0.0 mm 0.00 in0.0 mm
04:20 AM 49.1°F9.5°C 47.2°F8.4°C 93% 1.2 mph SSW1.9 kmh SSW 3.5 mph5.6 kmh 30.14 in1020.7 mb - 0.00 in0.0 mm 0.00 in0.0 mm
04:15 AM 49.1°F9.5°C 46.9°F8.3°C 92% 1.2 mph SSW1.9 kmh SSW 2.3 mph3.7 kmh 30.14 in1020.7 mb - 0.00 in0.0 mm 0.00 in0.0 mm
04:10 AM 49.2°F9.6°C 47.3°F8.5°C 93% 1.2 mph SSW1.9 kmh SSW 2.3 mph3.7 kmh 30.14 in1020.7 mb - 0.00 in0.0 mm 0.00 in0.0 mm
04:00 AM 49.3°F9.6°C 47.1°F8.4°C 92% Calm Calm 1.2 mph1.9 kmh 30.14 in1020.7 mb - 0.00 in0.0 mm 0.00 in0.0 mm
03:55 AM 49.4°F9.7°C 47.2°F8.4°C 92% 1.2 mph SSW1.9 kmh SSW 3.5 mph5.6 kmh 30.14 in1020.7 mb - 0.00 in0.0 mm 0.00 in0.0 mm
03:50 AM 49.4°F9.7°C 47.2°F8.4°C 92% 1.2 mph SSW1.9 kmh SSW 3.5 mph5.6 kmh 30.14 in1020.7 mb - 0.00 in0.0 mm 0.00 in0.0 mm
03:45 AM 49.5°F9.7°C 47.3°F8.5°C 92% Calm Calm 1.2 mph1.9 kmh 30.14 in1020.7 mb - 0.00 in0.0 mm 0.00 in0.0 mm
03:40 AM 49.6°F9.8°C 47.4°F8.6°C 92% Calm Calm -- 30.14 in1020.7 mb - 0.00 in0.0 mm 0.00 in0.0 mm
03:35 AM 49.7°F9.8°C 47.5°F8.6°C 92% Calm Calm 1.2 mph1.9 kmh 30.14 in1020.7 mb - 0.00 in0.0 mm 0.00 in0.0 mm
03:30 AM 49.8°F9.9°C 47.6°F8.7°C 92% 1.2 mph SSW1.9 kmh SSW 3.5 mph5.6 kmh 30.14 in1020.7 mb - 0.00 in0.0 mm 0.00 in0.0 mm
03:25 AM 49.9°F9.9°C 47.7°F8.7°C 92% 1.2 mph SSW1.9 kmh SSW 2.3 mph3.7 kmh 30.14 in1020.7 mb - 0.00 in0.0 mm 0.00 in0.0 mm
03:20 AM 50.0°F10.0°C 47.8°F8.8°C 92% 1.2 mph SSW1.9 kmh SSW 3.5 mph5.6 kmh 30.14 in1020.7 mb - 0.00 in0.0 mm 0.00 in0.0 mm
03:15 AM 50.1°F10.1°C 47.9°F8.8°C 92% 1.2 mph SSW1.9 kmh SSW 3.5 mph5.6 kmh 30.14 in1020.7 mb - 0.00 in0.0 mm 0.00 in0.0 mm
03:10 AM 50.1°F10.1°C 47.9°F8.8°C 92% 1.2 mph SSW1.9 kmh SSW 1.2 mph1.9 kmh 30.14 in1020.7 mb - 0.00 in0.0 mm 0.00 in0.0 mm
03:00 AM 50.2°F10.1°C 48.0°F8.9°C 92% Calm Calm 1.2 mph1.9 kmh 30.14 in1020.7 mb - 0.00 in0.0 mm 0.00 in0.0 mm
02:55 AM 50.2°F10.1°C 48.0°F8.9°C 92% Calm Calm 1.2 mph1.9 kmh 30.14 in1020.7 mb - 0.00 in0.0 mm 0.00 in0.0 mm
02:50 AM 50.3°F10.2°C 48.1°F8.9°C 92% 1.2 mph SSW1.9 kmh SSW 3.5 mph5.6 kmh 30.14 in1020.7 mb - 0.00 in0.0 mm 0.00 in0.0 mm
02:45 AM 50.3°F10.2°C 47.8°F8.8°C 91% 1.2 mph SW1.9 kmh SW 3.5 mph5.6 kmh 30.14 in1020.7 mb - 0.00 in0.0 mm 0.00 in0.0 mm
02:40 AM 50.4°F10.2°C 47.9°F8.8°C 91% 1.2 mph SW1.9 kmh SW 2.3 mph3.7 kmh 30.14 in1020.7 mb - 0.00 in0.0 mm 0.00 in0.0 mm
02:35 AM 50.5°F10.3°C 48.0°F8.9°C 91% Calm Calm 1.2 mph1.9 kmh 30.14 in1020.7 mb - 0.00 in0.0 mm 0.00 in0.0 mm
02:30 AM 50.5°F10.3°C 48.0°F8.9°C 91% Calm Calm 2.3 mph3.7 kmh 30.14 in1020.7 mb - 0.00 in0.0 mm 0.00 in0.0 mm
02:25 AM 50.6°F10.3°C 48.1°F8.9°C 91% 1.2 mph SW1.9 kmh SW 2.3 mph3.7 kmh 30.14 in1020.7 mb - 0.00 in0.0 mm 0.00 in0.0 mm
02:20 AM 50.7°F10.4°C 48.2°F9.0°C 91% Calm Calm 1.2 mph1.9 kmh 30.14 in1020.7 mb - 0.00 in0.0 mm 0.00 in0.0 mm
02:15 AM 50.8°F10.4°C 48.0°F8.9°C 90% 1.2 mph SW1.9 kmh SW 3.5 mph5.6 kmh 30.14 in1020.7 mb - 0.00 in0.0 mm 0.00 in0.0 mm
02:10 AM 51.0°F10.6°C 48.2°F9.0°C 90% Calm Calm 3.5 mph5.6 kmh 30.14 in1020.7 mb - 0.00 in0.0 mm 0.00 in0.0 mm
02:00 AM 51.2°F10.7°C 48.4°F9.1°C 90% Calm Calm 1.2 mph1.9 kmh 30.15 in1021.0 mb - 0.00 in0.0 mm 0.00 in0.0 mm
01:55 AM 51.3°F10.7°C 48.5°F9.2°C 90% Calm Calm 1.2 mph1.9 kmh 30.14 in1020.7 mb - 0.00 in0.0 mm 0.00 in0.0 mm
01:50 AM 51.4°F10.8°C 48.6°F9.2°C 90% Calm Calm 1.2 mph1.9 kmh 30.14 in1020.7 mb - 0.00 in0.0 mm 0.00 in0.0 mm
01:45 AM 51.5°F10.8°C 48.7°F9.3°C 90% Calm Calm 1.2 mph1.9 kmh 30.14 in1020.7 mb - 0.00 in0.0 mm 0.00 in0.0 mm
01:40 AM 51.6°F10.9°C 48.8°F9.3°C 90% Calm Calm 2.3 mph3.7 kmh 30.13 in1020.3 mb - 0.00 in0.0 mm 0.00 in0.0 mm
01:35 AM 51.7°F10.9°C 48.9°F9.4°C 90% Calm Calm 1.2 mph1.9 kmh 30.13 in1020.3 mb - 0.00 in0.0 mm 0.00 in0.0 mm
01:30 AM 51.8°F11.0°C 49.0°F9.4°C 90% Calm Calm 2.3 mph3.7 kmh 30.13 in1020.3 mb - 0.00 in0.0 mm 0.00 in0.0 mm
01:25 AM 51.9°F11.1°C 49.1°F9.5°C 90% 1.2 mph SW1.9 kmh SW 2.3 mph3.7 kmh 30.13 in1020.3 mb - 0.00 in0.0 mm 0.00 in0.0 mm
01:20 AM 52.1°F11.2°C 49.3°F9.6°C 90% Calm Calm 2.3 mph3.7 kmh 30.14 in1020.7 mb - 0.00 in0.0 mm 0.00 in0.0 mm
01:15 AM 52.2°F11.2°C 49.1°F9.5°C 89% Calm Calm 1.2 mph1.9 kmh 30.13 in1020.3 mb - 0.00 in0.0 mm 0.00 in0.0 mm
01:10 AM 52.3°F11.3°C 49.2°F9.6°C 89% Calm Calm -- 30.14 in1020.7 mb - 0.00 in0.0 mm 0.00 in0.0 mm
01:00 AM 52.5°F11.4°C 49.4°F9.7°C 89% Calm Calm 1.2 mph1.9 kmh 30.14 in1020.7 mb - 0.00 in0.0 mm 0.00 in0.0 mm
12:55 AM 52.6°F11.4°C 49.5°F9.7°C 89% Calm Calm -- 30.14 in1020.7 mb - 0.00 in0.0 mm 0.00 in0.0 mm
12:50 AM 52.8°F11.6°C 49.6°F9.8°C 89% Calm Calm 1.2 mph1.9 kmh 30.14 in1020.7 mb - 0.00 in0.0 mm 0.00 in0.0 mm
12:45 AM 52.9°F11.6°C 49.7°F9.8°C 89% Calm Calm 2.3 mph3.7 kmh 30.14 in1020.7 mb - 0.00 in0.0 mm 0.00 in0.0 mm
12:40 AM 53.0°F11.7°C 49.8°F9.9°C 89% Calm Calm 2.3 mph3.7 kmh 30.14 in1020.7 mb - 0.00 in0.0 mm 0.00 in0.0 mm
12:35 AM 53.1°F11.7°C 49.9°F9.9°C 89% Calm Calm 2.3 mph3.7 kmh 30.14 in1020.7 mb - 0.00 in0.0 mm 0.00 in0.0 mm
12:30 AM 53.1°F11.7°C 49.9°F9.9°C 89% 1.2 mph SW1.9 kmh SW 2.3 mph3.7 kmh 30.13 in1020.3 mb - 0.00 in0.0 mm 0.00 in0.0 mm
12:25 AM 53.2°F11.8°C 50.0°F10.0°C 89% 2.3 mph SW3.7 kmh SW 3.5 mph5.6 kmh 30.14 in1020.7 mb - 0.00 in0.0 mm 0.00 in0.0 mm
12:20 AM 53.2°F11.8°C 50.0°F10.0°C 89% 1.2 mph SW1.9 kmh SW 3.5 mph5.6 kmh 30.14 in1020.7 mb - 0.00 in0.0 mm 0.00 in0.0 mm
12:15 AM 53.3°F11.8°C 50.1°F10.1°C 89% 1.2 mph SW1.9 kmh SW 3.5 mph5.6 kmh 30.14 in1020.7 mb - 0.00 in0.0 mm 0.00 in0.0 mm
12:10 AM 53.3°F11.8°C 50.1°F10.1°C 89% 1.2 mph SW1.9 kmh SW 2.3 mph3.7 kmh 30.14 in1020.7 mb - 0.00 in0.0 mm 0.00 in0.0 mm
12:00 AM 53.3°F11.8°C 50.2°F10.1°C 89% 2.3 mph SW3.7 kmh SW 3.5 mph5.6 kmh 30.14 in1020.7 mb - 0.00 in0.0 mm 0.00 in0.0 mm